Skip Navigation Links Skip Navigation Links

Current Weather

Buckeye Muni, Buckeye, Ariz.

For information only: do not use for flight planning or navigation.
Latest weather
Observation time Monday, October 18, 2021 12:15 PM MST
Local time Monday, October 18, 2021 12:17 PM MST
Flight conditions Visual Meteorological Conditions
Winds
Wind direction South (190°)
Wind speed 17 mph
Visibility 10 mi.
Sky condition
Ceiling unlimited
Temperature 81°F
Dewpoint 52°F
Altimeter 29.86 in.Hg
Derived measurements
Relative humidity 37%
Heat index 81°F
Density altitude 2661 ft.
Remarks
Fully automated report.
METAR KBXK 181915Z AUTO 19015KT 10SM 27/11 A2986 RMK A01

Settings

Location code

InnerDrive.Weather 4.0.6770.0 Release CLR 4.0.30319.42000
Copyright ©2018 Inner Drive Technology. All rights reserved. Portions Copyright ©1986-2018 David Braverman.

Find weather

Site navigation


Skip Navigation Links

Place info

Page info

PayPal - The safer, easier way to pay online!

Return home.

Copyright ©2021 Inner Drive Technology. Purveyors of fine, hand-crafted computer software. Page printed 2021-10-18T19:17:50 UTC.